Time;durP1;ratioP1;P1;durP2;ratioP2;P2;SDS_P1;SDS_P2;PMS_P1;PMS_P2;Temp;Humidity;BMP_temperature;BMP_pressure;BME280_temperature;BME280_humidity;BME280_pressure;Samples;Min_cycle;Max_cycle;Signal;HPM_P1;HPM_P2
2022/09/13 00:02:08;;;;;;;;;;;13.30;99.90;;;;;;4973100;28;20268;-64
2022/09/13 00:04:35;;;;;;;;;;;13.40;99.90;;;;;;4973025;28;19911;-64
2022/09/13 00:07:01;;;;;;;;;;;13.40;99.90;;;;;;4972685;28;19918;-65
2022/09/13 00:09:28;;;;;;;;;;;13.60;99.90;;;;;;4972995;28;20316;-65
2022/09/13 00:11:55;;;;;;;;;;;13.50;99.90;;;;;;4973019;28;19915;-64
2022/09/13 00:14:25;;;;;;;;;;;13.50;99.90;;;;;;4972969;28;19914;-64
2022/09/13 00:16:52;;;;;;;;;;;13.70;99.90;;;;;;4973085;28;19914;-64
2022/09/13 00:19:18;;;;;;;;;;;13.70;99.90;;;;;;4972350;28;19917;-64
2022/09/13 00:21:45;;;;;;;;;;;13.80;99.90;;;;;;4972758;28;19910;-64
2022/09/13 00:24:12;;;;;;;;;;;13.80;99.90;;;;;;4972731;28;19914;-64
2022/09/13 00:26:38;;;;;;;;;;;13.80;99.90;;;;;;4972678;28;19917;-65
2022/09/13 00:29:05;;;;;;;;;;;13.70;99.90;;;;;;4972151;28;19924;-65
2022/09/13 00:31:32;;;;;;;;;;;13.90;99.90;;;;;;4972898;28;19952;-65
2022/09/13 00:33:59;;;;;;;;;;;14.10;99.90;;;;;;4972956;28;19917;-65
2022/09/13 00:36:26;;;;;;;;;;;14.20;99.90;;;;;;4972723;28;19918;-64
2022/09/13 00:38:53;;;;;;;;;;;14.40;99.90;;;;;;4972439;28;19937;-65
2022/09/13 00:41:20;;;;;;;;;;;14.50;99.90;;;;;;4972423;28;20372;-65
2022/09/13 00:43:48;;;;;;;;;;;14.70;99.90;;;;;;4973038;28;19914;-65
2022/09/13 00:46:20;;;;;;;;;;;14.90;99.90;;;;;;4976565;28;19910;-65
2022/09/13 00:48:48;;;;;;;;;;;14.80;99.90;;;;;;4975811;28;20029;-65
2022/09/13 00:51:15;;;;;;;;;;;14.60;99.90;;;;;;4958708;28;19965;-64
2022/09/13 00:53:44;;;;;;;;;;;14.30;99.90;;;;;;4976049;28;20373;-66
2022/09/13 00:56:15;;;;;;;;;;;14.10;99.90;;;;;;4976152;28;19910;-67
2022/09/13 00:58:46;;;;;;;;;;;14.20;99.90;;;;;;4975883;28;20005;-66
2022/09/13 01:01:14;;;;;;;;;;;14.50;99.90;;;;;;4975776;28;19918;-65
2022/09/13 01:03:42;;;;;;;;;;;14.70;99.90;;;;;;4976031;28;20317;-64
2022/09/13 01:06:13;;;;;;;;;;;14.70;99.90;;;;;;4976196;28;19920;-64
2022/09/13 01:08:41;;;;;;;;;;;14.70;99.90;;;;;;4975594;28;20035;-65
2022/09/13 01:11:16;;;;;;;;;;;14.80;99.90;;;;;;4975468;28;19917;-65
2022/09/13 01:13:43;;;;;;;;;;;14.90;99.90;;;;;;4975795;28;19921;-65
2022/09/13 01:16:10;;;;;;;;;;;15.00;99.90;;;;;;4975771;28;20057;-64
2022/09/13 01:18:37;;;;;;;;;;;15.00;99.90;;;;;;4975145;28;19925;-65
2022/09/13 01:21:12;;;;;;;;;;;14.80;99.90;;;;;;4975455;28;19915;-64
2022/09/13 01:23:49;;;;;;;;;;;14.60;99.90;;;;;;4975612;28;19914;-63
2022/09/13 01:26:22;;;;;;;;;;;14.40;99.90;;;;;;4975618;28;19914;-64
2022/09/13 01:28:49;;;;;;;;;;;14.40;99.90;;;;;;4974839;28;19958;-65
2022/09/13 01:31:27;;;;;;;;;;;14.50;99.90;;;;;;4975242;28;19910;-65
2022/09/13 01:34:00;;;;;;;;;;;14.70;99.90;;;;;;4975807;28;19917;-66
2022/09/13 01:36:43;;;;;;;;;;;15.00;99.90;;;;;;4975577;28;20347;-66
2022/09/13 01:39:16;;;;;;;;;;;15.00;99.90;;;;;;4975230;28;20273;-67
2022/09/13 01:41:42;;;;;;;;;;;14.80;99.90;;;;;;4975323;28;20005;-65
2022/09/13 01:44:12;;;;;;;;;;;14.80;99.90;;;;;;4975508;28;20272;-68
2022/09/13 01:46:39;;;;;;;;;;;14.80;99.90;;;;;;4975359;28;20288;-65
2022/09/13 01:49:08;;;;;;;;;;;14.70;99.90;;;;;;4974807;28;19914;-65
2022/09/13 01:51:38;;;;;;;;;;;14.70;99.90;;;;;;4975146;28;19937;-66
2022/09/13 01:54:20;;;;;;;;;;;14.70;99.90;;;;;;4975029;28;19933;-68
2022/09/13 01:56:55;;;;;;;;;;;14.60;99.90;;;;;;4974734;28;19914;-64
2022/09/13 01:59:34;;;;;;;;;;;14.70;99.90;;;;;;4974639;28;19925;-66
2022/09/13 02:02:01;;;;;;;;;;;14.70;99.90;;;;;;4970634;28;19937;-65
2022/09/13 02:04:35;;;;;;;;;;;14.70;99.90;;;;;;4974738;28;19936;-67
2022/09/13 02:07:04;;;;;;;;;;;14.80;99.90;;;;;;4974447;28;19917;-65
2022/09/13 02:09:34;;;;;;;;;;;14.70;99.90;;;;;;4961745;28;19922;-65
2022/09/13 02:12:05;;;;;;;;;;;14.50;99.90;;;;;;4969794;28;19945;-66
2022/09/13 02:14:35;;;;;;;;;;;14.70;99.90;;;;;;4956393;28;20365;-65
2022/09/13 02:17:05;;;;;;;;;;;14.80;99.90;;;;;;4970682;28;20389;-67
2022/09/13 02:19:44;;;;;;;;;;;14.90;99.90;;;;;;4970711;28;19937;-66
2022/09/13 02:22:13;;;;;;;;;;;15.00;99.90;;;;;;4970823;28;19914;-65
2022/09/13 02:24:41;;;;;;;;;;;15.20;99.90;;;;;;4971644;28;19925;-64
2022/09/13 02:27:13;;;;;;;;;;;15.10;99.90;;;;;;4968483;28;19922;-64
2022/09/13 02:29:42;;;;;;;;;;;15.00;99.90;;;;;;4974320;28;19945;-65
2022/09/13 02:32:15;;;;;;;;;;;15.00;99.90;;;;;;4974333;28;19918;-67
2022/09/13 02:34:53;;;;;;;;;;;14.90;99.90;;;;;;4974285;28;20033;-65
2022/09/13 02:37:20;;;;;;;;;;;15.00;99.90;;;;;;4973763;28;20385;-65
2022/09/13 02:39:54;;;;;;;;;;;15.20;99.90;;;;;;4974220;28;19924;-65
2022/09/13 02:42:23;;;;;;;;;;;15.20;99.90;;;;;;4973988;28;20336;-66
2022/09/13 02:44:52;;;;;;;;;;;15.20;99.90;;;;;;4974189;28;19910;-65
2022/09/13 02:47:36;;;;;;;;;;;15.40;99.90;;;;;;4973454;28;19909;-65
2022/09/13 02:50:06;;;;;;;;;;;15.40;99.90;;;;;;4974007;28;19961;-64
2022/09/13 02:52:53;;;;;;;;;;;15.50;99.90;;;;;;4974053;28;19936;-66
2022/09/13 02:55:20;;;;;;;;;;;15.50;99.90;;;;;;4973815;28;19936;-64
2022/09/13 02:57:46;;;;;;;;;;;15.40;99.90;;;;;;4973185;28;19926;-65
2022/09/13 03:00:13;;;;;;;;;;;15.30;99.90;;;;;;4973886;28;19933;-66
2022/09/13 03:02:41;;;;;;;;;;;15.30;99.90;;;;;;4973855;28;19910;-65
2022/09/13 03:05:08;;;;;;;;;;;15.40;99.90;;;;;;4973596;28;19921;-65
2022/09/13 03:07:35;;;;;;;;;;;15.50;99.90;;;;;;4972963;28;19914;-67
2022/09/13 03:10:06;;;;;;;;;;;15.40;99.90;;;;;;4973953;28;19960;-64
2022/09/13 03:12:51;;;;;;;;;;;15.50;99.90;;;;;;4973521;28;19914;-64
2022/09/13 03:15:24;;;;;;;;;;;15.50;99.90;;;;;;4973375;28;20388;-65
2022/09/13 03:18:09;;;;;;;;;;;15.40;99.90;;;;;;4973111;28;19914;-64
2022/09/13 03:20:56;;;;;;;;;;;15.40;99.90;;;;;;4973814;28;20086;-66
2022/09/13 03:23:27;;;;;;;;;;;15.40;99.90;;;;;;4962988;28;20328;-68
2022/09/13 03:25:57;;;;;;;;;;;15.20;99.90;;;;;;4973196;28;19914;-66
2022/09/13 03:28:35;;;;;;;;;;;15.20;99.90;;;;;;4972886;28;20288;-64
2022/09/13 03:31:05;;;;;;;;;;;15.20;99.90;;;;;;4973376;28;20337;-64
2022/09/13 03:33:51;;;;;;;;;;;15.20;99.90;;;;;;4973398;28;19914;-64
2022/09/13 03:36:27;;;;;;;;;;;15.20;99.90;;;;;;4973355;28;19917;-65
2022/09/13 03:39:00;;;;;;;;;;;15.20;99.90;;;;;;4973239;28;19914;-65
2022/09/13 03:41:31;;;;;;;;;;;15.20;99.90;;;;;;4973336;28;19911;-64
2022/09/13 03:44:09;;;;;;;;;;;15.30;99.90;;;;;;4973363;28;19914;-66
2022/09/13 03:46:39;;;;;;;;;;;15.20;99.90;;;;;;4973043;28;19921;-65
2022/09/13 03:49:12;;;;;;;;;;;15.20;99.90;;;;;;4973019;28;20380;-66
2022/09/13 03:51:39;;;;;;;;;;;15.30;99.90;;;;;;4973291;28;20044;-65
2022/09/13 03:54:11;;;;;;;;;;;15.30;99.90;;;;;;4972976;28;20004;-64
2022/09/13 03:56:38;;;;;;;;;;;15.30;99.90;;;;;;4972517;28;20424;-65
2022/09/13 03:59:04;;;;;;;;;;;15.20;99.90;;;;;;4972885;28;20456;-65
2022/09/13 04:01:31;;;;;;;;;;;15.20;99.90;;;;;;4972964;28;19914;-66
2022/09/13 04:03:58;;;;;;;;;;;15.20;99.90;;;;;;4973051;28;19953;-65
2022/09/13 04:06:25;;;;;;;;;;;15.30;99.90;;;;;;4973287;28;20300;-66
2022/09/13 04:08:51;;;;;;;;;;;15.20;99.90;;;;;;4972781;28;19941;-66
2022/09/13 04:11:20;;;;;;;;;;;15.20;99.90;;;;;;4972676;28;19917;-67
2022/09/13 04:13:46;;;;;;;;;;;15.10;99.90;;;;;;4972752;28;19961;-66
2022/09/13 04:16:14;;;;;;;;;;;15.00;99.90;;;;;;4972767;28;20288;-68
2022/09/13 04:18:40;;;;;;;;;;;15.00;99.90;;;;;;4972303;28;20388;-67
2022/09/13 04:21:08;;;;;;;;;;;15.10;99.90;;;;;;4976318;28;19941;-68
2022/09/13 04:23:34;;;;;;;;;;;15.20;99.90;;;;;;4976813;28;19911;-65
2022/09/13 04:26:02;;;;;;;;;;;15.10;99.90;;;;;;4976457;28;20385;-66
2022/09/13 04:28:29;;;;;;;;;;;15.10;99.90;;;;;;4976306;28;20258;-65
2022/09/13 04:30:56;;;;;;;;;;;15.00;99.90;;;;;;4976531;28;19914;-66
2022/09/13 04:33:23;;;;;;;;;;;15.00;99.90;;;;;;4976192;28;19921;-65
2022/09/13 04:35:53;;;;;;;;;;;15.00;99.90;;;;;;4976563;28;19921;-64
2022/09/13 04:38:20;;;;;;;;;;;15.00;99.90;;;;;;4976475;28;19922;-64
2022/09/13 04:40:51;;;;;;;;;;;15.10;99.90;;;;;;4976374;28;19918;-65
2022/09/13 04:43:18;;;;;;;;;;;15.10;99.90;;;;;;4976286;28;19910;-64
2022/09/13 04:45:45;;;;;;;;;;;15.10;99.90;;;;;;4976299;28;19917;-65
2022/09/13 04:48:12;;;;;;;;;;;15.10;99.90;;;;;;4975762;28;19925;-65
2022/09/13 04:50:38;;;;;;;;;;;15.10;99.90;;;;;;4976203;28;20357;-65
2022/09/13 04:53:05;;;;;;;;;;;15.10;99.90;;;;;;4975761;28;19972;-63
2022/09/13 04:55:32;;;;;;;;;;;15.00;99.90;;;;;;4975882;28;20385;-66
2022/09/13 04:57:58;;;;;;;;;;;14.90;99.90;;;;;;4975710;28;19922;-64
2022/09/13 05:00:26;;;;;;;;;;;15.00;99.90;;;;;;4976142;28;19914;-64
2022/09/13 05:02:56;;;;;;;;;;;15.00;99.90;;;;;;4975928;28;19910;-65
2022/09/13 05:05:24;;;;;;;;;;;14.90;99.90;;;;;;4975669;28;20357;-65
2022/09/13 05:07:51;;;;;;;;;;;14.90;99.90;;;;;;4975520;28;20004;-64
2022/09/13 05:10:18;;;;;;;;;;;15.00;99.90;;;;;;4975854;28;20372;-65
2022/09/13 05:12:45;;;;;;;;;;;15.20;99.90;;;;;;4975914;28;19910;-65
2022/09/13 05:15:12;;;;;;;;;;;15.30;99.90;;;;;;4975655;28;19914;-64
2022/09/13 05:17:38;;;;;;;;;;;15.30;99.90;;;;;;4975143;28;20368;-65
2022/09/13 05:20:05;;;;;;;;;;;15.50;99.90;;;;;;4975624;28;20348;-64
2022/09/13 05:22:32;;;;;;;;;;;15.70;99.90;;;;;;4975618;28;19914;-65
2022/09/13 05:24:59;;;;;;;;;;;15.70;99.90;;;;;;4975479;28;19916;-65
2022/09/13 05:27:25;;;;;;;;;;;15.70;99.90;;;;;;4975050;28;19911;-65
2022/09/13 05:29:52;;;;;;;;;;;15.70;99.90;;;;;;4975109;28;20369;-66
2022/09/13 05:32:19;;;;;;;;;;;15.60;99.90;;;;;;4975628;28;19910;-65
2022/09/13 05:34:46;;;;;;;;;;;15.50;99.90;;;;;;4975799;28;19910;-66
2022/09/13 05:37:13;;;;;;;;;;;15.30;99.90;;;;;;4974972;28;19957;-64
2022/09/13 05:39:40;;;;;;;;;;;15.30;99.90;;;;;;4975187;28;19910;-64
2022/09/13 05:42:06;;;;;;;;;;;15.30;99.90;;;;;;4975306;28;20005;-66
2022/09/13 05:44:33;;;;;;;;;;;15.40;99.90;;;;;;4975096;28;19910;-64
2022/09/13 05:47:00;;;;;;;;;;;15.40;99.90;;;;;;4974946;28;19924;-65
2022/09/13 05:49:26;;;;;;;;;;;15.40;99.90;;;;;;4974976;28;19926;-65
2022/09/13 05:51:53;;;;;;;;;;;15.40;99.90;;;;;;4975192;28;20380;-65
2022/09/13 05:54:20;;;;;;;;;;;15.30;99.90;;;;;;4975011;28;19917;-65
2022/09/13 05:56:46;;;;;;;;;;;15.40;99.90;;;;;;4974676;28;19926;-65
2022/09/13 05:59:13;;;;;;;;;;;15.40;99.90;;;;;;4974624;28;19925;-64
2022/09/13 06:01:40;;;;;;;;;;;15.40;99.90;;;;;;4975047;28;20364;-65
2022/09/13 06:04:07;;;;;;;;;;;15.40;99.90;;;;;;4974931;28;19910;-65
2022/09/13 06:06:34;;;;;;;;;;;15.40;99.90;;;;;;4974737;28;20360;-65
2022/09/13 06:09:01;;;;;;;;;;;15.40;99.90;;;;;;4974803;28;20411;-64
2022/09/13 06:11:28;;;;;;;;;;;15.40;99.90;;;;;;4974701;28;19917;-65
2022/09/13 06:13:54;;;;;;;;;;;15.30;99.90;;;;;;4974694;28;19922;-65
2022/09/13 06:16:21;;;;;;;;;;;15.30;99.90;;;;;;4974475;28;19910;-64
2022/09/13 06:18:48;;;;;;;;;;;15.20;99.90;;;;;;4974707;28;19914;-65
2022/09/13 06:21:16;;;;;;;;;;;15.10;99.90;;;;;;4974549;28;19910;-65
2022/09/13 06:23:47;;;;;;;;;;;15.10;99.90;;;;;;4974314;28;19937;-64
2022/09/13 06:26:15;;;;;;;;;;;15.10;99.90;;;;;;4974325;28;19949;-64
2022/09/13 06:28:42;;;;;;;;;;;15.00;99.90;;;;;;4973899;28;19922;-64
2022/09/13 06:31:10;;;;;;;;;;;14.90;99.90;;;;;;4974270;28;19910;-64
2022/09/13 06:33:37;;;;;;;;;;;14.90;99.90;;;;;;4974432;28;19914;-64
2022/09/13 06:36:05;;;;;;;;;;;14.90;99.90;;;;;;4974332;28;20398;-64
2022/09/13 06:38:32;;;;;;;;;;;14.90;99.90;;;;;;4973940;28;19910;-64
2022/09/13 06:41:03;;;;;;;;;;;14.90;99.90;;;;;;4974126;28;19910;-64
2022/09/13 06:43:30;;;;;;;;;;;15.00;99.90;;;;;;4973386;28;19980;-65
2022/09/13 06:46:00;;;;;;;;;;;15.10;99.90;;;;;;4974123;28;19937;-64
2022/09/13 06:48:30;;;;;;;;;;;15.10;99.90;;;;;;4973854;28;20009;-65
2022/09/13 06:50:58;;;;;;;;;;;15.10;99.90;;;;;;4973578;28;20304;-65
2022/09/13 06:53:27;;;;;;;;;;;15.00;99.90;;;;;;4971996;28;19918;-65
2022/09/13 06:56:01;;;;;;;;;;;14.90;99.90;;;;;;4971972;28;20500;-64
2022/09/13 06:58:29;;;;;;;;;;;14.80;99.90;;;;;;4971297;28;20648;-64
2022/09/13 07:01:04;;;;;;;;;;;14.90;99.90;;;;;;4971815;28;20337;-63
2022/09/13 07:03:31;;;;;;;;;;;14.80;99.90;;;;;;4971703;28;19925;-64
2022/09/13 07:05:58;;;;;;;;;;;14.60;99.90;;;;;;4970852;28;20361;-64
2022/09/13 07:08:24;;;;;;;;;;;14.70;99.90;;;;;;4970702;28;20336;-64
2022/09/13 07:10:51;;;;;;;;;;;14.60;99.90;;;;;;4970782;28;19921;-64
2022/09/13 07:13:17;;;;;;;;;;;14.60;99.90;;;;;;4970650;28;19910;-64
2022/09/13 07:15:44;;;;;;;;;;;14.60;99.90;;;;;;4971281;28;19937;-64
2022/09/13 07:18:11;;;;;;;;;;;14.50;99.90;;;;;;4971137;28;20000;-63
2022/09/13 07:20:37;;;;;;;;;;;14.50;99.90;;;;;;4971642;28;19921;-63
2022/09/13 07:23:04;;;;;;;;;;;14.50;99.90;;;;;;4971557;28;19918;-65
2022/09/13 07:25:34;;;;;;;;;;;14.50;99.90;;;;;;4971472;28;19956;-66
2022/09/13 07:28:00;;;;;;;;;;;14.50;99.90;;;;;;4971052;28;20659;-64
2022/09/13 07:30:27;;;;;;;;;;;14.40;99.90;;;;;;4971001;28;19953;-65
2022/09/13 07:32:54;;;;;;;;;;;14.40;99.90;;;;;;4971313;28;19964;-66
2022/09/13 07:35:20;;;;;;;;;;;14.30;99.90;;;;;;4971004;28;19914;-64
2022/09/13 07:37:47;;;;;;;;;;;14.30;99.90;;;;;;4953590;28;19914;-64
2022/09/13 07:40:14;;;;;;;;;;;14.20;99.90;;;;;;4971008;28;19952;-65
2022/09/13 07:42:40;;;;;;;;;;;14.20;99.90;;;;;;4971093;28;19914;-64
2022/09/13 07:45:07;;;;;;;;;;;14.20;99.90;;;;;;4970724;28;19972;-65
2022/09/13 07:47:34;;;;;;;;;;;14.10;99.90;;;;;;4970645;28;20426;-64
2022/09/13 07:50:01;;;;;;;;;;;14.10;99.90;;;;;;4971249;28;20281;-65
2022/09/13 07:52:28;;;;;;;;;;;14.10;99.90;;;;;;4971210;28;19933;-64
2022/09/13 07:54:55;;;;;;;;;;;14.10;99.90;;;;;;4970819;28;19922;-64
2022/09/13 07:57:22;;;;;;;;;;;14.10;99.90;;;;;;4970090;28;19992;-64
2022/09/13 07:59:48;;;;;;;;;;;14.10;99.90;;;;;;4971140;28;20365;-64
2022/09/13 08:02:17;;;;;;;;;;;14.10;99.90;;;;;;4970930;28;20237;-63
2022/09/13 08:04:43;;;;;;;;;;;14.10;99.90;;;;;;4971113;28;19914;-65
2022/09/13 08:07:10;;;;;;;;;;;14.00;99.90;;;;;;4970633;28;19997;-65
2022/09/13 08:09:37;;;;;;;;;;;14.00;99.90;;;;;;4970574;28;19934;-65
2022/09/13 08:12:03;;;;;;;;;;;14.00;99.90;;;;;;4970904;28;20277;-66
2022/09/13 08:14:30;;;;;;;;;;;14.00;99.90;;;;;;4971020;28;19925;-66
2022/09/13 08:16:57;;;;;;;;;;;14.00;99.90;;;;;;4970669;28;20452;-66
2022/09/13 08:19:23;;;;;;;;;;;14.00;99.90;;;;;;4953411;28;20012;-65
2022/09/13 08:21:50;;;;;;;;;;;13.90;99.90;;;;;;4953545;28;19914;-65
2022/09/13 08:24:18;;;;;;;;;;;14.00;99.90;;;;;;4970350;28;20009;-65
2022/09/13 08:26:45;;;;;;;;;;;13.90;99.90;;;;;;4970690;28;19914;-64
2022/09/13 08:29:12;;;;;;;;;;;13.90;99.90;;;;;;4970199;28;19922;-65
2022/09/13 08:31:39;;;;;;;;;;;13.90;99.90;;;;;;4970576;28;19918;-65
2022/09/13 08:34:08;;;;;;;;;;;13.90;99.90;;;;;;4970739;28;19993;-64
2022/09/13 08:36:35;;;;;;;;;;;13.80;99.90;;;;;;4970052;28;19910;-65
2022/09/13 08:39:03;;;;;;;;;;;13.80;99.90;;;;;;4970722;28;19911;-69
2022/09/13 08:41:46;;;;;;;;;;;13.90;99.90;;;;;;4970816;28;19918;-71
2022/09/13 08:44:28;;;;;;;;;;;13.90;99.90;;;;;;4970787;28;19957;-72
2022/09/13 08:47:10;;;;;;;;;;;13.90;99.90;;;;;;4970413;28;19914;-72
2022/09/13 08:49:45;;;;;;;;;;;13.90;99.90;;;;;;4951895;28;20412;-71
2022/09/13 08:52:11;;;;;;;;;;;13.80;99.90;;;;;;4953453;28;19914;-72
2022/09/13 08:54:38;;;;;;;;;;;13.80;99.90;;;;;;4970587;28;19911;-70
2022/09/13 08:57:14;;;;;;;;;;;13.80;99.90;;;;;;4970130;28;19953;-71
2022/09/13 08:59:59;;;;;;;;;;;13.80;99.90;;;;;;4970694;28;20021;-70
2022/09/13 09:02:38;;;;;;;;;;;13.80;99.90;;;;;;4970451;28;19954;-72
2022/09/13 09:05:16;;;;;;;;;;;13.80;99.90;;;;;;4971236;28;19916;-71
2022/09/13 09:07:45;;;;;;;;;;;13.80;99.90;;;;;;4973131;28;19922;-70
2022/09/13 09:10:17;;;;;;;;;;;13.70;99.90;;;;;;4975992;28;19919;-71
2022/09/13 09:12:52;;;;;;;;;;;13.70;99.90;;;;;;4975879;28;19910;-72
2022/09/13 09:15:24;;;;;;;;;;;13.70;99.90;;;;;;4975708;28;19921;-71
2022/09/13 09:18:02;;;;;;;;;;;13.70;99.90;;;;;;4975473;28;19957;-69
2022/09/13 09:20:52;;;;;;;;;;;13.70;99.90;;;;;;4975850;28;19937;-70
2022/09/13 09:23:25;;;;;;;;;;;13.70;99.90;;;;;;4975290;28;19911;-69
2022/09/13 09:26:12;;;;;;;;;;;13.70;99.90;;;;;;4975984;28;19922;-71
2022/09/13 09:28:38;;;;;;;;;;;13.60;99.90;;;;;;4976052;28;20376;-72
2022/09/13 09:31:23;;;;;;;;;;;13.60;99.90;;;;;;4977335;28;19996;-71
2022/09/13 09:33:56;;;;;;;;;;;13.60;99.90;;;;;;4975524;28;19914;-70
2022/09/13 09:36:32;;;;;;;;;;;13.70;99.90;;;;;;4975188;28;19910;-68
2022/09/13 09:38:59;;;;;;;;;;;13.70;99.90;;;;;;4975467;28;19914;-69
2022/09/13 09:41:33;;;;;;;;;;;13.60;99.90;;;;;;4975278;28;20362;-69
2022/09/13 09:44:12;;;;;;;;;;;13.70;99.90;;;;;;4975487;28;19914;-71
2022/09/13 09:46:40;;;;;;;;;;;13.70;99.90;;;;;;4955854;28;20001;-72
2022/09/13 09:52:05;;;;;;;;;;;13.60;99.90;;;;;;4957225;28;19924;-72
2022/09/13 09:54:33;;;;;;;;;;;13.60;99.90;;;;;;4975160;28;19930;-70
2022/09/13 09:57:00;;;;;;;;;;;13.60;99.90;;;;;;4974887;28;19918;-72
2022/09/13 09:59:32;;;;;;;;;;;13.60;99.90;;;;;;4975215;28;19925;-72
2022/09/13 10:02:11;;;;;;;;;;;13.60;99.90;;;;;;4974655;28;19921;-71
2022/09/13 10:04:39;;;;;;;;;;;13.60;99.90;;;;;;4975225;28;19920;-72
2022/09/13 10:07:10;;;;;;;;;;;13.60;99.90;;;;;;4974313;28;19914;-71
2022/09/13 10:09:38;;;;;;;;;;;13.50;99.90;;;;;;4974747;28;20381;-71
2022/09/13 10:12:05;;;;;;;;;;;13.60;99.90;;;;;;4975114;28;19949;-70
2022/09/13 10:14:35;;;;;;;;;;;13.60;99.90;;;;;;4974901;28;19994;-70
2022/09/13 10:17:04;;;;;;;;;;;13.60;99.90;;;;;;4973960;28;19910;-70
2022/09/13 10:19:31;;;;;;;;;;;13.60;99.90;;;;;;4974868;28;19946;-70
2022/09/13 10:22:02;;;;;;;;;;;13.50;99.90;;;;;;4974795;28;19914;-69
2022/09/13 10:24:29;;;;;;;;;;;13.60;99.90;;;;;;4974289;28;19956;-70
2022/09/13 10:26:56;;;;;;;;;;;13.50;99.90;;;;;;4974281;28;19914;-69
2022/09/13 10:29:23;;;;;;;;;;;13.60;99.90;;;;;;4972140;28;19926;-69
2022/09/13 10:31:52;;;;;;;;;;;13.60;99.90;;;;;;4972202;28;19914;-72
2022/09/13 10:34:25;;;;;;;;;;;13.60;99.90;;;;;;4972472;28;19914;-71
2022/09/13 10:36:51;;;;;;;;;;;13.70;99.90;;;;;;4972323;28;19954;-70
2022/09/13 10:39:20;;;;;;;;;;;13.70;99.90;;;;;;4972234;28;19955;-70
2022/09/13 10:41:55;;;;;;;;;;;13.70;99.90;;;;;;4972282;28;20038;-70
2022/09/13 10:44:51;;;;;;;;;;;13.70;99.90;;;;;;4972495;28;19921;-70
2022/09/13 10:47:37;;;;;;;;;;;13.80;99.90;;;;;;4958290;28;19915;-71
2022/09/13 10:50:18;;;;;;;;;;;13.70;99.90;;;;;;4972406;28;19968;-69
2022/09/13 10:52:46;;;;;;;;;;;13.70;99.90;;;;;;4972172;28;20277;-70
2022/09/13 10:55:19;;;;;;;;;;;13.80;99.90;;;;;;4971390;28;20626;-70
2022/09/13 10:57:47;;;;;;;;;;;13.80;99.90;;;;;;4970942;28;19941;-71
2022/09/13 11:00:19;;;;;;;;;;;13.80;99.90;;;;;;4972326;28;19914;-69
2022/09/13 11:02:48;;;;;;;;;;;13.80;99.90;;;;;;4972056;28;19914;-70
2022/09/13 11:05:20;;;;;;;;;;;13.80;99.90;;;;;;4971760;28;19910;-70
2022/09/13 11:07:50;;;;;;;;;;;13.80;99.90;;;;;;4971477;28;19925;-71
2022/09/13 11:10:29;;;;;;;;;;;13.80;99.90;;;;;;4971973;28;19922;-72
2022/09/13 11:13:01;;;;;;;;;;;13.80;99.90;;;;;;4971874;28;19914;-71
2022/09/13 11:15:38;;;;;;;;;;;13.80;99.90;;;;;;4971666;28;19914;-72
2022/09/13 11:18:19;;;;;;;;;;;13.80;99.90;;;;;;4971435;28;19914;-71
2022/09/13 11:20:51;;;;;;;;;;;13.80;99.90;;;;;;4971319;28;20410;-72
2022/09/13 11:23:36;;;;;;;;;;;13.80;99.90;;;;;;4971604;28;20444;-69
2022/09/13 11:26:08;;;;;;;;;;;13.80;99.90;;;;;;4971608;28;19914;-71
2022/09/13 11:28:43;;;;;;;;;;;13.80;99.90;;;;;;4971845;28;20000;-72
2022/09/13 11:31:34;;;;;;;;;;;13.80;99.90;;;;;;4972665;28;20446;-72
2022/09/13 11:34:19;;;;;;;;;;;13.70;99.90;;;;;;4954016;28;19918;-70
2022/09/13 11:36:54;;;;;;;;;;;13.70;99.90;;;;;;4971194;28;19914;-69
2022/09/13 11:39:29;;;;;;;;;;;13.70;99.90;;;;;;4971450;28;19914;-68
2022/09/13 11:42:02;;;;;;;;;;;13.60;99.90;;;;;;4971486;28;19914;-71
2022/09/13 11:44:46;;;;;;;;;;;13.60;99.90;;;;;;4971434;28;19921;-70
2022/09/13 11:47:19;;;;;;;;;;;13.60;99.90;;;;;;4970246;28;19917;-71
2022/09/13 11:50:02;;;;;;;;;;;13.60;99.90;;;;;;4971383;28;19918;-71
2022/09/13 11:52:36;;;;;;;;;;;13.50;99.90;;;;;;4973605;28;19921;-71
2022/09/13 11:55:10;;;;;;;;;;;13.50;99.90;;;;;;4973651;28;20389;-70
2022/09/13 11:57:40;;;;;;;;;;;13.50;99.90;;;;;;4973111;28;19961;-70
2022/09/13 12:00:15;;;;;;;;;;;13.60;99.90;;;;;;4973491;28;19958;-71
2022/09/13 12:03:05;;;;;;;;;;;13.60;99.90;;;;;;4973489;28;19914;-71
2022/09/13 12:05:34;;;;;;;;;;;13.50;99.90;;;;;;4965400;28;19949;-71
2022/09/13 12:08:21;;;;;;;;;;;13.50;99.90;;;;;;4972848;28;19984;-71
2022/09/13 12:10:53;;;;;;;;;;;13.50;99.90;;;;;;4973244;28;20352;-73
2022/09/13 12:13:22;;;;;;;;;;;13.40;99.90;;;;;;4973104;28;19914;-71
2022/09/13 12:15:52;;;;;;;;;;;13.40;99.90;;;;;;4972913;28;20276;-71
2022/09/13 12:18:24;;;;;;;;;;;13.30;99.90;;;;;;4973278;28;19913;-73
2022/09/13 12:20:57;;;;;;;;;;;13.20;99.90;;;;;;4973259;28;19914;-72
2022/09/13 12:23:29;;;;;;;;;;;13.20;99.90;;;;;;4973086;28;19910;-70
2022/09/13 12:25:55;;;;;;;;;;;13.10;99.90;;;;;;4972922;28;20009;-72
2022/09/13 12:28:24;;;;;;;;;;;13.00;99.90;;;;;;4973003;28;20387;-70
2022/09/13 12:31:03;;;;;;;;;;;12.90;99.90;;;;;;4973088;28;20356;-73
2022/09/13 12:33:30;;;;;;;;;;;12.90;99.90;;;;;;4973309;28;19969;-71
2022/09/13 12:36:06;;;;;;;;;;;12.80;99.90;;;;;;4973008;28;20000;-72
2022/09/13 12:38:40;;;;;;;;;;;12.80;99.90;;;;;;4973244;28;19957;-72
2022/09/13 12:41:19;;;;;;;;;;;12.70;99.90;;;;;;4975087;28;19914;-71
2022/09/13 12:43:55;;;;;;;;;;;12.70;99.90;;;;;;4976857;28;19918;-72
2022/09/13 12:46:37;;;;;;;;;;;12.60;99.90;;;;;;4976589;28;20293;-70
2022/09/13 12:49:04;;;;;;;;;;;12.60;99.90;;;;;;4976911;28;20357;-72
2022/09/13 12:51:37;;;;;;;;;;;12.50;99.90;;;;;;4977563;28;19934;-71
2022/09/13 12:54:19;;;;;;;;;;;12.50;99.90;;;;;;4978218;28;19935;-71
2022/09/13 12:56:49;;;;;;;;;;;12.50;99.90;;;;;;4977282;28;19910;-72
2022/09/13 12:59:19;;;;;;;;;;;12.40;99.90;;;;;;4977543;28;19926;-72
2022/09/13 13:01:50;;;;;;;;;;;12.40;99.90;;;;;;4978555;28;19910;-70
2022/09/13 13:04:28;;;;;;;;;;;12.40;99.90;;;;;;4978509;28;19926;-72
2022/09/13 13:06:56;;;;;;;;;;;12.40;99.90;;;;;;4982112;28;19992;-70
2022/09/13 13:09:27;;;;;;;;;;;12.30;99.90;;;;;;4979646;28;19922;-69
2022/09/13 13:11:54;;;;;;;;;;;12.30;99.90;;;;;;4978377;28;19917;-69
2022/09/13 13:14:28;;;;;;;;;;;12.30;99.90;;;;;;4978665;28;19914;-68
2022/09/13 13:17:14;;;;;;;;;;;12.30;99.90;;;;;;4977864;28;20434;-70
2022/09/13 13:19:41;;;;;;;;;;;12.30;99.90;;;;;;4976464;28;20361;-69
2022/09/13 13:22:26;;;;;;;;;;;12.30;99.90;;;;;;4976182;28;19914;-70
2022/09/13 13:24:54;;;;;;;;;;;12.30;99.90;;;;;;4976070;28;19911;-69
2022/09/13 13:27:50;;;;;;;;;;;12.30;99.90;;;;;;4976188;28;19949;-69
2022/09/13 13:30:35;;;;;;;;;;;12.30;99.90;;;;;;4980321;28;19980;-72
2022/09/13 13:33:05;;;;;;;;;;;12.30;99.90;;;;;;4978737;28;19915;-70
2022/09/13 13:35:32;;;;;;;;;;;12.30;99.90;;;;;;4975709;28;19910;-71
2022/09/13 13:38:16;;;;;;;;;;;12.30;99.90;;;;;;4975355;28;19961;-69
2022/09/13 13:40:42;;;;;;;;;;;12.30;99.90;;;;;;4975717;28;19942;-69
2022/09/13 13:43:36;;;;;;;;;;;12.20;99.90;;;;;;4975191;28;19965;-69
2022/09/13 13:46:12;;;;;;;;;;;12.20;99.90;;;;;;4972750;28;19914;-69
2022/09/13 13:48:40;;;;;;;;;;;12.20;99.90;;;;;;4975641;28;19941;-72
2022/09/13 13:51:12;;;;;;;;;;;12.10;99.90;;;;;;4974805;28;20016;-71
2022/09/13 13:53:41;;;;;;;;;;;12.10;99.90;;;;;;4975072;28;20392;-70
2022/09/13 13:56:16;;;;;;;;;;;12.10;99.90;;;;;;4975066;28;19914;-72
2022/09/13 13:58:46;;;;;;;;;;;12.10;99.90;;;;;;4975014;28;20383;-72
2022/09/13 14:01:17;;;;;;;;;;;12.10;99.90;;;;;;4974941;28;20309;-69
2022/09/13 14:03:56;;;;;;;;;;;12.10;99.90;;;;;;4975301;28;19910;-70
2022/09/13 14:06:37;;;;;;;;;;;12.10;99.90;;;;;;4974789;28;20385;-71
2022/09/13 14:09:15;;;;;;;;;;;12.00;99.90;;;;;;4975306;28;20368;-70
2022/09/13 14:11:42;;;;;;;;;;;12.00;99.90;;;;;;4975654;28;20289;-70
2022/09/13 14:14:27;;;;;;;;;;;12.00;99.90;;;;;;4975515;28;19921;-70
2022/09/13 14:17:12;;;;;;;;;;;11.90;99.90;;;;;;4974858;28;20049;-71
2022/09/13 14:19:42;;;;;;;;;;;11.90;99.90;;;;;;4976082;28;19937;-71
2022/09/13 14:22:21;;;;;;;;;;;11.90;99.90;;;;;;4975643;28;19961;-72
2022/09/13 14:24:49;;;;;;;;;;;11.90;99.90;;;;;;4976417;28;19910;-71
2022/09/13 14:27:20;;;;;;;;;;;11.80;99.90;;;;;;4975420;28;19910;-70
2022/09/13 14:29:49;;;;;;;;;;;11.80;99.90;;;;;;4983547;28;19922;-70
2022/09/13 14:32:18;;;;;;;;;;;11.80;99.90;;;;;;4982819;28;19910;-70
2022/09/13 14:35:01;;;;;;;;;;;11.70;99.90;;;;;;4984494;28;19914;-75
2022/09/13 14:37:32;;;;;;;;;;;11.60;99.90;;;;;;4990542;28;19921;-71
2022/09/13 14:40:07;;;;;;;;;;;11.60;99.90;;;;;;4990789;28;19914;-73
2022/09/13 14:42:39;;;;;;;;;;;11.60;99.90;;;;;;4988976;28;19911;-73